KNUCKPSP

Guest
Details From KNUC - San Clemente Island Nalf
To KPSP - Palm Springs Intl
Flight Number -
Tags generated
Created
Modified
Stats Distance 115 nm / 213 km
Max Altitude 4,300 ft / 1,311 m
Waypoints 3
Social Downloads 1
Likes 0
Share VATSIM

Download

Looking for another format? Having issues loading an existing format? Contact us
Advertisement - Login to hide

Notes

Basic altitude profile: - Ascent Rate: 2500ft/min - Ascent Speed: 250kts - Cruise Altitude: 12ft - Cruise Speed: 420kts - Descent Rate: 1500ft/min - Descent Speed: 250kts Options: - Use NATs: yes - Use PACOTS: yes - Use low airways: yes - Use high airways: yes

Route

KNUC HEMET KPSP

ID Type Via Altitude Latitude Longitude Leg Dist Tot Dist Heading (true) Name
O KNUC APT - 0 ft / 0 m 33.02274˚ -118.58849˚ - 0 nm - San Clemente Island Nalf
HEMET FIX - 4,300 ft / 1,311 m 33.69049˚ -116.87905˚ 94 nm 94 nm 64° / 65° -
O KPSP APT - 0 ft / 0 m 33.82968˚ -116.50622˚ 20 nm 115 nm 66° / 66° Palm Springs Intl

Altitude Profile

Advertisement - Login to hide

KNUC

Details ICAO KNUC
Name San Clemente Island Nalf
Region United States
Timezone America/Los_Angeles (UTC-8.0)
Stats Elevation 182 ft / 55 m (AMSL)
Location 33.022745° -118.588487°
Runways 1
Magnetic Variation 11.852° E

METAR

KNUC 182256Z 30004KT 10SM BKN250 18/15 A3005 RMK SLP174 T01780150

Decode

TAF

TAF TAF AMD KNUC 1818/1915 25008KT 9999 SCT005 QNH3006INS TEMPO 1817/1821 6000 BR BKN005 FM182100 29010KT 9999 SCT005 QNH3002INS TEMPO 1821/1900 BKN005 FM190000 29010KT 9999 BKN008 QNH3000INS FM191100 31014KT 9999 BKN008 SCT180 QNH2998INS T19/1822Z T12/1913Z AMD 1830 FS30121

Decode

Departure Runways

ID Width Length Bearing (true) Bearing (mag) Surface Threshold Offset Overrun Length
05 200 ft / 61 m 9,290 ft / 2,832 m 67.19° 55.34° Concrete 0 ft / 0 m 0 ft / 0 m
23 200 ft / 61 m 9,290 ft / 2,832 m 247.20° 235.35° Concrete 0 ft / 0 m 0 ft / 0 m

KPSP

Details ICAO KPSP (PSP)
Name Palm Springs Intl
Region United States
Timezone America/Los_Angeles (UTC-8.0)
Stats Elevation 477 ft / 145 m (AMSL)
Location 33.829677° -116.506218°
Runways 2
Magnetic Variation 11.571° E

METAR

KPSP 182253Z 11004KT 10SM CLR 24/03 A3006 RMK AO2 SLP177 T02440028

Decode

TAF

TAF KPSP 181738Z 1818/1918 VRB05KT P6SM SCT250

Decode

Destination Runways

ID Width Length Bearing (true) Bearing (mag) Surface Threshold Offset Overrun Length
13L 75 ft / 23 m 4,958 ft / 1,511 m 143.52° 131.95° Asphalt 0 ft / 0 m 151 ft / 46 m
13R 151 ft / 46 m 10,012 ft / 3,052 m 143.52° 131.95° Asphalt 2,999 ft / 914 m 200 ft / 61 m
31L 151 ft / 46 m 10,012 ft / 3,052 m 323.53° 311.96° Asphalt 1,499 ft / 457 m 200 ft / 61 m
31R 75 ft / 23 m 4,958 ft / 1,511 m 323.53° 311.96° Asphalt 0 ft / 0 m 151 ft / 46 m

Popular Alternatives